Time;durP1;ratioP1;P1;durP2;ratioP2;P2;SDS_P1;SDS_P2;PMS_P1;PMS_P2;Temp;Humidity;BMP_temperature;BMP_pressure;BME280_temperature;BME280_humidity;BME280_pressure;Samples;Min_cycle;Max_cycle;Signal;HPM_P1;HPM_P2
2023/10/25 00:00:08;;;;;;;3.70;3.30;;;12.00;99.90;;;;;;4944440;28;20210;-92
2023/10/25 00:02:34;;;;;;;3.95;3.65;;;11.90;99.90;;;;;;4944842;28;20257;-92
2023/10/25 00:05:00;;;;;;;3.40;3.10;;;13.40;99.90;;;;;;4945140;28;20185;-92
2023/10/25 00:07:26;;;;;;;4.07;3.00;;;12.60;99.90;;;;;;4947788;28;20455;-92
2023/10/25 00:09:51;;;;;;;3.23;2.93;;;13.20;99.90;;;;;;4943952;28;20663;-92
2023/10/25 00:12:17;;;;;;;8.10;5.10;;;12.50;99.90;;;;;;4947368;28;20322;-92
2023/10/25 00:14:42;;;;;;;3.10;2.90;;;12.80;99.90;;;;;;4953807;28;20211;-92
2023/10/25 00:17:08;;;;;;;3.27;2.97;;;11.70;99.90;;;;;;4966839;28;20239;-92
2023/10/25 00:19:34;;;;;;;3.63;3.33;;;12.90;99.90;;;;;;4951172;28;20260;-92
2023/10/25 00:21:59;;;;;;;4.10;3.70;;;11.90;99.90;;;;;;4945427;28;20208;-92
2023/10/25 00:24:25;;;;;;;3.63;3.33;;;12.90;99.90;;;;;;4943665;28;20658;-92
2023/10/25 00:26:51;;;;;;;3.90;3.60;;;;;;;;;;4951060;28;20196;-92
2023/10/25 00:29:17;;;;;;;4.10;3.70;;;11.90;99.90;;;;;;4953550;28;20444;-91
2023/10/25 00:31:45;;;;;;;7.80;3.50;;;13.60;99.90;;;;;;4953872;28;20192;-93
2023/10/25 00:34:11;;;;;;;3.35;3.05;;;13.80;99.90;;;;;;4952889;28;20240;-92
2023/10/25 00:36:37;;;;;;;3.93;3.30;;;;;;;;;;4944681;28;20213;-93
2023/10/25 00:39:02;;;;;;;5.55;4.30;;;11.60;99.90;;;;;;4953169;28;20465;-92
2023/10/25 00:41:28;;;;;;;3.87;3.57;;;11.70;99.90;;;;;;4970122;28;20188;-92
2023/10/25 00:43:54;;;;;;;4.80;3.43;;;12.60;99.90;;;;;;4973743;28;20213;-92
2023/10/25 00:46:28;;;;;;;3.63;3.33;;;12.40;99.90;;;;;;4964131;28;20455;-93
2023/10/25 00:48:57;;;;;;;3.47;3.22;;;11.40;99.90;;;;;;4976928;28;20432;-92
2023/10/25 00:51:25;;;;;;;3.85;3.55;;;11.20;99.90;;;;;;4966891;28;20203;-93
2023/10/25 00:53:52;;;;;;;3.65;3.35;;;12.70;99.90;;;;;;4955900;28;20569;-92
2023/10/25 00:56:21;;;;;;;3.78;3.47;;;12.30;99.90;;;;;;4946204;28;20211;-93
2023/10/25 00:58:53;;;;;;;3.72;3.42;;;13.00;99.90;;;;;;4948422;28;20184;-93
2023/10/25 01:01:21;;;;;;;3.53;3.28;;;12.30;99.90;;;;;;4950876;28;20219;-92
2023/10/25 01:03:47;;;;;;;3.72;3.42;;;11.90;99.90;;;;;;4948716;28;20295;-93
2023/10/25 01:06:13;;;;;;;3.97;3.60;;;;;;;;;;4951877;28;20227;-92
2023/10/25 01:08:39;;;;;;;3.80;3.50;;;11.60;99.90;;;;;;4951013;28;20200;-90
2023/10/25 01:11:05;;;;;;;3.60;3.30;;;11.70;99.90;;;;;;4952046;28;20192;-92
2023/10/25 01:13:30;;;;;;;4.40;3.85;;;12.60;99.90;;;;;;4947452;28;20456;-93
2023/10/25 01:15:56;;;;;;;7.43;3.77;;;;;;;;;;4945985;28;20560;-93
2023/10/25 01:18:22;;;;;;;4.78;3.50;;;11.20;99.90;;;;;;4948650;28;20211;-92
2023/10/25 01:20:48;;;;;;;3.60;3.30;;;12.80;99.90;;;;;;4952651;28;20603;-93
2023/10/25 01:23:14;;;;;;;3.50;3.20;;;;;;;;;;4948466;28;20205;-92
2023/10/25 01:25:42;;;;;;;4.00;3.70;;;11.50;99.90;;;;;;4942891;28;20569;-93
2023/10/25 01:28:08;;;;;;;4.80;3.97;;;11.70;99.90;;;;;;4947891;28;20185;-93
2023/10/25 01:30:33;;;;;;;4.40;4.00;;;10.90;99.90;;;;;;4949437;28;20193;-92
2023/10/25 01:32:59;;;;;;;4.10;3.80;;;12.40;99.90;;;;;;4952303;28;20714;-92
2023/10/25 01:35:25;;;;;;;4.13;3.80;;;12.20;99.90;;;;;;4952697;28;20208;-92
2023/10/25 01:37:51;;;;;;;5.65;3.38;;;12.40;99.90;;;;;;4951862;28;20196;-93
2023/10/25 01:40:17;;;;;;;4.50;4.00;;;13.40;99.90;;;;;;4949937;28;20185;-93
2023/10/25 01:42:43;;;;;;;3.97;3.57;;;11.40;99.90;;;;;;4947513;28;20205;-93
2023/10/25 01:45:10;;;;;;;3.95;3.65;;;12.20;99.90;;;;;;4952440;28;20298;-92
2023/10/25 01:47:35;;;;;;;3.83;3.35;;;11.40;99.90;;;;;;4949701;28;20656;-92
2023/10/25 01:50:01;;;;;;;4.40;4.00;;;11.50;99.90;;;;;;4953290;28;20197;-93
2023/10/25 01:52:27;;;;;;;4.13;3.73;;;13.30;99.90;;;;;;4953043;28;20303;-92
2023/10/25 01:54:53;;;;;;;4.45;4.05;;;12.30;99.90;;;;;;4955800;28;20194;-92
2023/10/25 01:57:18;;;;;;;4.30;3.90;;;10.80;99.90;;;;;;4960705;28;20281;-92
2023/10/25 01:59:44;;;;;;;4.30;3.90;;;;;;;;;;4951221;28;20657;-92
2023/10/25 02:02:10;;;;;;;10.23;4.10;;;11.10;99.90;;;;;;4949901;28;20192;-93
2023/10/25 02:04:37;;;;;;;4.00;3.70;;;12.20;99.90;;;;;;4952241;28;20183;-93
2023/10/25 02:07:02;;;;;;;4.05;3.75;;;10.30;99.90;;;;;;4954030;28;20185;-93
2023/10/25 02:09:29;;;;;;;4.00;3.60;;;11.10;99.90;;;;;;4950608;28;20200;-93
2023/10/25 02:11:55;;;;;;;4.38;4.07;;;13.20;99.90;;;;;;4945643;28;20522;-93
2023/10/25 02:14:21;;;;;;;4.43;4.00;;;12.70;99.90;;;;;;4951679;28;20215;-92
2023/10/25 02:16:46;;;;;;;4.40;3.90;;;12.10;99.90;;;;;;4952486;28;20559;-93
2023/10/25 02:19:12;;;;;;;5.30;4.00;;;;;;;;;;4955510;28;20458;-93
2023/10/25 02:21:38;;;;;;;4.30;3.90;;;11.10;99.90;;;;;;4952712;28;20289;-93
2023/10/25 02:24:04;;;;;;;4.40;4.00;;;12.40;99.90;;;;;;4948530;28;20465;-93
2023/10/25 02:26:30;;;;;;;4.15;3.85;;;11.20;99.90;;;;;;4949585;28;20209;-92
2023/10/25 02:28:56;;;;;;;4.43;4.03;;;;;;;;;;4947135;28;20220;-92
2023/10/25 02:31:22;;;;;;;4.50;3.33;;;11.30;99.90;;;;;;4950096;28;20221;-93
2023/10/25 02:33:48;;;;;;;5.50;4.63;;;13.10;99.90;;;;;;4970837;28;20199;-93
2023/10/25 02:36:13;;;;;;;4.07;3.77;;;12.10;99.90;;;;;;4967767;28;20819;-92
2023/10/25 02:38:39;;;;;;;4.20;3.80;;;11.70;99.90;;;;;;4971246;28;20173;-90
2023/10/25 02:41:05;;;;;;;5.23;4.30;;;12.00;99.90;;;;;;4973705;28;20179;-92
2023/10/25 02:43:30;;;;;;;7.23;4.00;;;12.60;99.90;;;;;;4966005;28;20203;-92
2023/10/25 02:46:03;;;;;;;3.73;3.43;;;13.20;99.90;;;;;;4972260;28;20179;-92
2023/10/25 02:48:29;;;;;;;3.92;3.53;;;12.20;99.90;;;;;;4970188;28;20165;-92
2023/10/25 02:50:58;;;;;;;4.73;3.73;;;11.60;99.90;;;;;;4970514;28;20206;-92
2023/10/25 02:53:23;;;;;;;4.80;4.30;;;11.60;99.90;;;;;;4967294;28;20447;-92
2023/10/25 02:55:49;;;;;;;4.10;3.60;;;11.00;99.90;;;;;;4967195;28;20227;-93
2023/10/25 02:58:17;;;;;;;4.30;3.90;;;10.50;99.90;;;;;;4965450;28;20215;-92
2023/10/25 03:00:43;;;;;;;5.05;4.55;;;12.90;99.90;;;;;;4961589;28;20208;-92
2023/10/25 03:03:08;;;;;;;4.30;3.93;;;12.80;99.90;;;;;;4956778;28;20218;-91
2023/10/25 03:05:34;;;;;;;4.77;3.43;;;12.20;99.90;;;;;;4966304;28;20442;-92
2023/10/25 03:07:59;;;;;;;4.47;4.07;;;10.40;99.90;;;;;;4963574;28;20215;-92
2023/10/25 03:10:25;;;;;;;3.97;3.67;;;11.70;99.90;;;;;;4965078;28;20195;-92
2023/10/25 03:12:51;;;;;;;4.70;4.30;;;;;;;;;;4957903;28;20215;-92
2023/10/25 03:15:17;;;;;;;4.07;3.67;;;10.90;99.90;;;;;;4955103;28;20700;-92
2023/10/25 03:17:44;;;;;;;4.65;4.10;;;11.70;99.90;;;;;;4955508;29;20183;-92
2023/10/25 03:20:10;;;;;;;4.18;3.78;;;9.90;99.90;;;;;;4951544;28;20182;-92
2023/10/25 03:22:35;;;;;;;3.72;3.42;;;10.80;99.90;;;;;;4955944;29;20221;-91
2023/10/25 03:25:01;;;;;;;3.83;3.50;;;11.40;99.90;;;;;;4959423;28;20649;-92
2023/10/25 03:27:27;;;;;;;7.00;4.40;;;12.10;99.90;;;;;;4950221;28;20226;-90
2023/10/25 03:29:52;;;;;;;4.40;4.10;;;12.40;99.90;;;;;;4950655;28;20226;-92
2023/10/25 03:32:18;;;;;;;6.28;3.78;;;10.50;99.90;;;;;;4943181;28;20224;-91
2023/10/25 03:34:44;;;;;;;3.90;3.60;;;;;;;;;;4949901;28;20190;-91
2023/10/25 03:37:10;;;;;;;4.00;3.70;;;10.60;99.90;;;;;;4963034;28;20229;-92
2023/10/25 03:39:36;;;;;;;3.70;3.40;;;12.00;99.90;;;;;;4965704;28;20502;-93
2023/10/25 03:42:03;;;;;;;5.65;3.88;;;11.60;99.90;;;;;;4948653;28;20461;-91
2023/10/25 03:44:29;;;;;;;3.70;3.40;;;10.80;99.90;;;;;;4948533;28;20275;-93
2023/10/25 03:46:54;;;;;;;6.13;4.10;;;11.20;99.90;;;;;;4948613;28;20179;-90
2023/10/25 03:49:20;;;;;;;4.90;4.50;;;12.80;99.90;;;;;;4952111;28;20213;-92
2023/10/25 03:51:46;;;;;;;6.90;6.30;;;11.50;99.90;;;;;;4944329;28;20757;-93
2023/10/25 03:54:11;;;;;;;4.53;4.13;;;11.20;99.90;;;;;;4945848;28;21055;-91
2023/10/25 03:56:37;;;;;;;4.70;4.30;;;11.30;99.90;;;;;;4949525;28;20301;-91
2023/10/25 03:59:03;;;;;;;4.30;3.90;;;;;;;;;;4950274;28;20195;-91
2023/10/25 04:01:29;;;;;;;4.45;4.15;;;10.60;99.90;;;;;;4953021;28;20187;-91
2023/10/25 04:03:55;;;;;;;4.25;3.85;;;10.20;99.90;;;;;;4942461;29;20214;-91
2023/10/25 04:06:21;;;;;;;4.47;4.07;;;;;;;;;;4945865;28;20189;-93
2023/10/25 04:08:49;;;;;;;5.05;4.57;;;10.60;99.90;;;;;;4965188;28;20184;-92
2023/10/25 04:11:15;;;;;;;5.55;4.85;;;11.80;99.90;;;;;;4975894;28;20220;-92
2023/10/25 04:13:40;;;;;;;5.23;4.73;;;11.60;99.90;;;;;;4968732;28;20206;-91
2023/10/25 04:16:09;;;;;;;5.50;5.00;;;11.10;99.90;;;;;;4945946;28;20223;-89
2023/10/25 04:18:35;;;;;;;5.05;4.65;;;10.90;99.90;;;;;;4953383;28;20276;-91
2023/10/25 04:21:01;;;;;;;5.10;4.60;;;12.70;99.90;;;;;;4941442;28;20184;-88
2023/10/25 04:23:29;;;;;;;4.93;4.55;;;11.30;99.90;;;;;;4942944;28;20266;-90
2023/10/25 04:26:11;;;;;;;4.63;4.07;;;11.30;99.90;;;;;;4943365;28;20211;-89
2023/10/25 04:28:39;;;;;;;5.60;4.57;;;10.60;99.90;;;;;;4950536;28;20211;-94
2023/10/25 04:31:06;;;;;;;4.57;4.25;;;11.00;99.90;;;;;;4970118;28;20203;-92
2023/10/25 04:33:37;;;;;;;4.72;4.32;;;10.70;99.90;;;;;;4965331;28;20723;-92
2023/10/25 04:36:05;;;;;;;5.75;5.25;;;12.30;99.90;;;;;;4946272;28;20214;-93
2023/10/25 04:41:18;;;;;;;4.30;3.90;;;10.10;99.90;;;;;;4973581;23;20264;-88
2023/10/25 04:43:44;;;;;;;4.37;3.97;;;10.90;99.90;;;;;;4965008;28;20712;-88
2023/10/25 04:46:14;;;;;;;4.80;4.40;;;10.70;99.90;;;;;;4974226;28;20185;-89
2023/10/25 04:48:40;;;;;;;4.38;4.07;;;10.40;99.90;;;;;;4977095;28;20188;-89
2023/10/25 04:51:07;;;;;;;4.13;3.83;;;;;;;;;;4978405;28;20194;-89
2023/10/25 04:53:33;;;;;;;5.43;5.03;;;10.50;99.90;;;;;;4981298;28;20205;-91
2023/10/25 04:55:59;;;;;;;4.40;4.07;;;11.00;99.90;;;;;;4980955;28;20214;-90
2023/10/25 04:58:27;;;;;;;4.93;4.53;;;10.60;99.90;;;;;;4980035;28;20769;-87
2023/10/25 05:00:52;;;;;;;4.93;4.53;;;10.50;99.90;;;;;;4975957;28;20185;-88
2023/10/25 05:03:18;;;;;;;5.50;5.00;;;;;;;;;;4978843;28;20208;-90
2023/10/25 05:05:46;;;;;;;4.90;4.40;;;10.50;99.90;;;;;;4970178;28;20491;-90
2023/10/25 05:08:12;;;;;;;5.05;4.10;;;9.10;99.90;;;;;;4976832;28;20449;-91
2023/10/25 05:10:38;;;;;;;5.03;4.57;;;10.40;99.90;;;;;;4984624;28;20196;-90
2023/10/25 05:13:04;;;;;;;5.73;5.17;;;10.40;99.90;;;;;;4980229;28;20208;-91
2023/10/25 05:15:31;;;;;;;4.32;3.92;;;10.50;99.90;;;;;;4981114;28;20470;-91
2023/10/25 05:17:57;;;;;;;4.43;4.03;;;10.60;99.90;;;;;;4978598;28;20178;-91
2023/10/25 05:20:23;;;;;;;4.33;3.93;;;10.40;99.90;;;;;;4980976;28;20205;-91
2023/10/25 05:22:50;;;;;;;5.43;4.47;;;10.40;99.90;;;;;;4974418;28;20460;-93
2023/10/25 05:25:17;;;;;;;4.50;4.00;;;10.60;99.90;;;;;;4978823;28;20193;-91
2023/10/25 05:27:43;;;;;;;4.03;3.72;;;10.40;99.90;;;;;;4977473;28;20189;-92
2023/10/25 05:30:09;;;;;;;5.63;4.10;;;10.50;99.90;;;;;;4987196;28;20249;-92
2023/10/25 05:32:40;;;;;;;4.63;4.15;;;10.50;99.90;;;;;;4983760;28;20197;-92
2023/10/25 05:35:06;;;;;;;3.92;3.58;;;10.60;99.90;;;;;;4983264;28;20506;-93
2023/10/25 05:37:32;;;;;;;4.57;4.18;;;10.30;99.90;;;;;;4977313;28;20222;-92
2023/10/25 05:39:58;;;;;;;3.83;3.53;;;10.60;99.90;;;;;;4985883;28;20205;-91
2023/10/25 05:42:25;;;;;;;4.10;3.70;;;10.50;99.90;;;;;;4986546;28;20192;-88
2023/10/25 05:44:53;;;;;;;4.57;4.18;;;10.30;99.90;;;;;;4991520;28;20453;-91
2023/10/25 05:47:22;;;;;;;4.30;3.90;;;11.00;99.90;;;;;;5129643;23;20230;-88
2023/10/25 05:49:51;;;;;;;4.32;3.92;;;10.60;99.90;;;;;;5004311;28;20170;-90
2023/10/25 05:52:17;;;;;;;5.75;4.57;;;10.40;99.90;;;;;;4992990;28;20232;-91
2023/10/25 05:54:43;;;;;;;4.35;3.55;;;10.30;99.90;;;;;;4962494;28;20194;-89
2023/10/25 05:57:11;;;;;;;5.20;4.03;;;10.60;99.90;;;;;;4964605;28;20202;-90
2023/10/25 05:59:39;;;;;;;4.00;3.60;;;10.40;99.90;;;;;;4965414;28;20182;-91
2023/10/25 06:02:11;;;;;;;5.32;4.82;;;10.40;99.90;;;;;;4963808;28;20553;-90
2023/10/25 06:04:38;;;;;;;5.75;3.80;;;10.50;99.90;;;;;;4957332;28;20269;-89
2023/10/25 06:07:05;;;;;;;4.15;3.50;;;10.50;99.90;;;;;;4959699;28;20193;-90
2023/10/25 06:09:31;;;;;;;3.90;3.60;;;10.30;99.90;;;;;;4951958;28;20676;-89
2023/10/25 06:11:57;;;;;;;4.07;3.77;;;10.10;99.90;;;;;;4955573;28;20181;-89
2023/10/25 06:14:24;;;;;;;3.60;3.30;;;10.70;99.90;;;;;;4952200;28;20491;-90
2023/10/25 06:16:53;;;;;;;4.68;4.20;;;8.60;99.90;;;;;;4953306;28;20473;-90
2023/10/25 06:19:18;;;;;;;3.95;3.55;;;10.80;99.90;;;;;;4956214;28;20686;-90
2023/10/25 06:21:45;;;;;;;4.47;4.07;;;10.70;99.90;;;;;;4957847;28;20193;-90
2023/10/25 06:24:13;;;;;;;4.90;4.50;;;10.40;99.90;;;;;;4956556;28;20198;-90
2023/10/25 06:26:39;;;;;;;6.07;4.20;;;12.10;99.90;;;;;;4956512;28;20288;-91
2023/10/25 06:29:05;;;;;;;4.72;4.32;;;11.20;99.90;;;;;;4955366;28;20202;-90
2023/10/25 06:31:33;;;;;;;4.27;3.97;;;10.80;99.90;;;;;;4953167;28;20724;-90
2023/10/25 06:34:24;;;;;;;4.40;4.00;;;11.40;99.90;;;;;;4956117;28;20469;-92
2023/10/25 06:37:22;;;;;;;5.25;4.85;;;12.80;99.90;;;;;;4963422;28;20211;-90
2023/10/25 06:39:48;;;;;;;5.75;5.13;;;10.50;99.90;;;;;;4955060;28;20192;-90
2023/10/25 06:42:14;;;;;;;5.50;4.83;;;10.50;99.90;;;;;;4956952;28;20187;-89
2023/10/25 06:44:41;;;;;;;5.78;5.28;;;10.90;99.90;;;;;;4956466;28;20517;-91
2023/10/25 06:47:09;;;;;;;5.85;5.13;;;10.30;99.90;;;;;;4954883;28;20217;-90
2023/10/25 06:49:35;;;;;;;5.95;5.20;;;10.50;99.90;;;;;;4960190;28;20191;-90
2023/10/25 06:52:01;;;;;;;6.82;6.22;;;10.70;99.90;;;;;;4950799;28;20639;-89
2023/10/25 06:54:28;;;;;;;8.52;6.55;;;10.60;99.90;;;;;;4966137;28;20301;-88
2023/10/25 06:56:53;;;;;;;6.43;5.82;;;10.70;99.90;;;;;;4951980;28;20218;-90
2023/10/25 06:59:20;;;;;;;6.00;5.40;;;10.70;99.90;;;;;;4954764;28;20730;-91
2023/10/25 07:01:53;;;;;;;9.30;8.02;;;10.50;99.90;;;;;;4953873;28;20188;-90
2023/10/25 07:04:22;;;;;;;9.93;8.93;;;13.40;99.90;;;;;;4953685;28;20238;-90
2023/10/25 07:06:49;;;;;;;6.53;5.82;;;13.10;99.90;;;;;;4956586;28;20182;-90
2023/10/25 07:09:15;;;;;;;6.40;5.80;;;11.70;99.90;;;;;;4959098;28;20281;-90
2023/10/25 07:11:41;;;;;;;5.65;5.00;;;11.30;99.90;;;;;;4956316;28;20214;-89
2023/10/25 07:14:06;;;;;;;5.30;4.53;;;12.00;99.90;;;;;;4956134;28;20233;-90
2023/10/25 07:16:32;;;;;;;5.70;5.20;;;;;;;;;;4956373;28;20362;-91
2023/10/25 07:18:58;;;;;;;9.13;4.50;;;11.40;99.90;;;;;;4953457;28;20243;-90
2023/10/25 07:21:24;;;;;;;5.50;5.00;;;;;;;;;;4956761;28;20252;-90
2023/10/25 07:23:50;;;;;;;5.90;5.30;;;11.60;99.90;;;;;;4957167;28;20704;-90
2023/10/25 07:26:18;;;;;;;6.17;5.10;;;11.10;99.90;;;;;;4950503;28;20191;-91
2023/10/25 07:28:44;;;;;;;6.65;5.65;;;13.60;99.90;;;;;;4957733;28;20279;-90
2023/10/25 07:31:09;;;;;;;5.50;4.77;;;11.10;99.90;;;;;;4956892;28;20657;-90
2023/10/25 07:33:35;;;;;;;4.60;4.20;;;;;;;;;;4955311;28;20219;-89
2023/10/25 07:36:01;;;;;;;4.63;4.23;;;12.00;99.90;;;;;;4960365;28;20246;-90
2023/10/25 07:38:26;;;;;;;4.53;4.13;;;12.10;99.90;;;;;;4956248;28;20460;-89
2023/10/25 07:40:52;;;;;;;7.47;6.20;;;12.30;99.90;;;;;;4957919;28;20207;-91
2023/10/25 07:43:20;;;;;;;4.93;4.53;;;12.40;99.90;;;;;;4963627;28;20760;-91
2023/10/25 07:45:45;;;;;;;4.90;4.40;;;12.40;99.90;;;;;;4958206;28;20610;-91
2023/10/25 07:48:11;;;;;;;4.33;4.03;;;13.50;99.90;;;;;;4963439;28;20193;-90
2023/10/25 07:50:37;;;;;;;4.30;3.90;;;12.60;99.90;;;;;;4962868;28;20567;-88
2023/10/25 07:53:03;;;;;;;4.95;4.55;;;13.00;99.90;;;;;;4961186;28;20227;-87
2023/10/25 07:55:28;;;;;;;5.00;4.50;;;13.00;99.90;;;;;;4961077;28;20184;-90
2023/10/25 07:57:54;;;;;;;3.87;3.57;;;14.10;99.90;;;;;;4961933;28;20180;-90
2023/10/25 08:00:55;;;;;;;4.00;3.70;;;13.70;99.90;;;;;;4966743;28;20689;-92
2023/10/25 08:03:28;;;;;;;4.45;4.05;;;13.50;99.90;;;;;;4935014;28;20239;-91
2023/10/25 08:12:44;;;;;;;4.50;4.10;;;13.40;99.90;;;;;;4914944;29;20240;-90
2023/10/25 08:15:10;;;;;;;4.60;4.20;;;12.90;99.90;;;;;;4955524;28;20202;-92
2023/10/25 08:17:35;;;;;;;3.90;3.60;;;13.50;99.90;;;;;;4979811;28;20205;-91
2023/10/25 08:20:01;;;;;;;5.50;3.70;;;;;;;;;;4977693;28;20364;-92
2023/10/25 08:22:27;;;;;;;3.90;3.60;;;14.00;99.90;;;;;;4979991;28;20300;-91
2023/10/25 08:24:55;;;;;;;4.23;3.93;;;13.30;99.90;;;;;;4984812;28;20459;-90
2023/10/25 08:27:21;;;;;;;4.10;3.78;;;13.90;99.90;;;;;;4968586;28;20176;-91
2023/10/25 08:29:46;;;;;;;3.77;3.47;;;14.60;99.90;;;;;;4981774;28;20199;-91
2023/10/25 08:32:19;;;;;;;4.30;4.00;;;13.10;99.90;;;;;;4972283;28;20185;-91
2023/10/25 08:35:14;;;;;;;3.72;3.42;;;14.50;99.90;;;;;;4972526;28;20220;-89
2023/10/25 08:37:39;;;;;;;3.70;3.40;;;13.50;99.90;;;;;;4973978;28;20342;-89
2023/10/25 08:40:08;;;;;;;3.30;3.10;;;16.10;99.90;;;;;;4960841;28;20243;-90
2023/10/25 08:42:34;;;;;;;3.75;3.45;;;14.60;99.90;;;;;;4957763;28;20219;-91
2023/10/25 08:45:00;;;;;;;4.00;3.70;;;15.90;99.90;;;;;;4957820;28;20185;-89
2023/10/25 08:47:25;;;;;;;3.50;3.20;;;16.40;99.90;;;;;;4962717;28;20212;-90
2023/10/25 08:49:51;;;;;;;4.53;3.23;;;16.30;99.90;;;;;;4963857;28;20220;-90
2023/10/25 08:52:34;;;;;;;;;;;;;;;;;;;;;
2023/10/25 08:59:29;;;;;;;3.65;2.80;;;15.00;99.90;;;;;;4909815;28;20610;-90
2023/10/25 09:01:51;;;;;;;3.95;3.63;;;16.40;99.90;;;;;;4934708;28;20184;-91
2023/10/25 09:04:16;;;;;;;5.20;3.83;;;15.00;99.90;;;;;;4956631;28;20201;-90
2023/10/25 09:06:42;;;;;;;3.10;2.80;;;15.60;99.90;;;;;;4956352;28;20192;-89
2023/10/25 09:09:09;;;;;;;5.50;4.37;;;16.10;99.90;;;;;;4958366;28;20201;-89
2023/10/25 09:11:42;;;;;;;3.92;3.60;;;14.60;99.90;;;;;;4958336;28;20228;-88
2023/10/25 09:14:10;;;;;;;4.78;3.90;;;14.70;99.90;;;;;;4956843;28;20213;-89
2023/10/25 09:16:47;;;;;;;3.50;3.20;;;15.00;99.90;;;;;;4956814;28;20229;-90
2023/10/25 09:19:19;;;;;;;3.50;3.30;;;14.90;99.90;;;;;;4961792;28;20181;-89
2023/10/25 09:21:44;;;;;;;2.90;2.70;;;14.50;99.90;;;;;;4953608;28;20255;-89
2023/10/25 09:24:10;;;;;;;3.63;2.87;;;14.40;99.90;;;;;;4961616;28;20200;-89
2023/10/25 09:26:39;;;;;;;3.23;3.03;;;15.00;99.90;;;;;;4956645;28;20197;-89
2023/10/25 09:29:05;;;;;;;3.08;2.80;;;14.90;99.90;;;;;;4954987;28;20193;-89
2023/10/25 09:31:34;;;;;;;3.80;3.40;;;14.40;99.90;;;;;;4963104;28;20201;-92
2023/10/25 09:34:02;;;;;;;3.22;2.92;;;14.80;99.90;;;;;;4961168;28;20205;-92
2023/10/25 09:36:30;;;;;;;3.47;3.17;;;15.80;99.90;;;;;;4960141;28;20220;-92
2023/10/25 09:38:56;;;;;;;2.90;2.70;;;15.50;99.90;;;;;;4960381;28;20276;-91
2023/10/25 09:41:23;;;;;;;2.88;2.65;;;14.20;99.90;;;;;;4954386;28;20217;-92
2023/10/25 09:43:51;;;;;;;2.95;2.75;;;14.70;99.90;;;;;;4958079;28;20627;-92
2023/10/25 09:46:19;;;;;;;2.88;2.67;;;13.20;99.90;;;;;;4973929;28;20209;-93
2023/10/25 09:49:04;;;;;;;4.45;3.70;;;15.90;99.90;;;;;;4975483;28;20176;-92
2023/10/25 09:51:46;;;;;;;3.20;3.00;;;14.40;99.90;;;;;;4979940;28;20173;-93
2023/10/25 09:54:13;;;;;;;4.00;3.60;;;14.70;99.90;;;;;;4976026;28;20210;-89
2023/10/25 09:56:39;;;;;;;3.55;3.35;;;14.20;99.90;;;;;;4996717;28;20189;-94
2023/10/25 09:59:11;;;;;;;3.55;3.30;;;16.50;99.90;;;;;;4970029;28;20185;-91
2023/10/25 10:01:38;;;;;;;4.40;3.45;;;15.70;99.90;;;;;;4980227;28;20192;-89
2023/10/25 10:04:22;;;;;;;4.10;3.80;;;14.90;99.90;;;;;;4956788;28;20282;-87
2023/10/25 10:07:24;;;;;;;3.85;3.00;;;15.30;99.90;;;;;;4973519;28;20181;-87
2023/10/25 10:10:03;;;;;;;3.08;2.88;;;15.50;99.90;;;;;;4948235;28;20537;-88
2023/10/25 10:12:29;;;;;;;3.00;2.75;;;16.40;99.90;;;;;;4965911;28;20201;-88
2023/10/25 10:14:55;;;;;;;2.97;2.77;;;16.40;99.90;;;;;;4972136;28;20202;-88
2023/10/25 10:17:21;;;;;;;4.97;2.90;;;;;;;;;;4954832;28;20219;-89
2023/10/25 10:19:47;;;;;;;2.92;2.72;;;15.50;99.90;;;;;;4956761;28;20192;-88
2023/10/25 10:22:15;;;;;;;2.97;2.78;;;17.90;99.90;;;;;;4956272;28;20223;-89
2023/10/25 10:24:48;;;;;;;2.55;2.35;;;15.50;99.90;;;;;;4953359;28;20184;-89
2023/10/25 10:27:26;;;;;;;3.00;2.80;;;15.80;99.90;;;;;;4957059;28;20235;-88
2023/10/25 10:29:51;;;;;;;3.08;2.78;;;15.70;99.90;;;;;;4956136;28;20646;-88
2023/10/25 10:32:27;;;;;;;2.90;2.63;;;16.20;99.90;;;;;;4957942;28;20193;-91
2023/10/25 10:34:57;;;;;;;2.67;2.47;;;15.80;99.90;;;;;;4959465;28;20692;-91
2023/10/25 10:37:26;;;;;;;2.33;2.20;;;16.90;99.90;;;;;;4941725;28;20674;-90
2023/10/25 10:39:57;;;;;;;2.10;2.00;;;16.80;99.90;;;;;;4956368;28;20181;-91
2023/10/25 10:42:42;;;;;;;2.42;2.10;;;17.00;99.90;;;;;;4973167;28;20193;-91
2023/10/25 10:45:14;;;;;;;2.30;2.10;;;16.10;99.90;;;;;;4956645;28;20192;-90
2023/10/25 10:47:46;;;;;;;2.20;2.10;;;15.80;99.90;;;;;;4958842;28;20188;-90
2023/10/25 10:50:15;;;;;;;1.80;1.70;;;15.70;99.90;;;;;;4959482;28;20198;-91
2023/10/25 10:53:00;;;;;;;2.22;2.13;;;16.30;99.90;;;;;;4968510;28;20271;-89
2023/10/25 10:55:26;;;;;;;1.83;1.70;;;15.70;99.90;;;;;;4944656;28;20226;-90
2023/10/25 10:58:02;;;;;;;1.90;1.80;;;17.00;99.90;;;;;;4955211;28;20177;-90
2023/10/25 11:00:28;;;;;;;3.17;1.60;;;14.90;99.90;;;;;;4959952;28;20180;-90
2023/10/25 11:02:59;;;;;;;1.90;1.80;;;17.10;99.90;;;;;;4954992;28;20284;-91
2023/10/25 11:05:25;;;;;;;2.17;1.90;;;17.70;99.90;;;;;;4954427;28;20189;-89
2023/10/25 11:07:53;;;;;;;1.63;1.53;;;17.90;99.90;;;;;;4959626;28;20205;-91
2023/10/25 11:10:29;;;;;;;;;;;;;;;;;;;;;
2023/10/25 11:12:58;;;;;;;1.80;1.70;;;17.10;99.90;;;;;;4963216;28;20231;-90
2023/10/25 11:15:32;;;;;;;2.00;1.90;;;16.50;99.90;;;;;;4957753;28;20689;-91
2023/10/25 11:18:01;;;;;;;1.77;1.67;;;18.10;99.90;;;;;;4963116;28;20223;-91
2023/10/25 11:20:31;;;;;;;1.60;1.50;;;17.20;99.90;;;;;;4938802;28;20194;-91
2023/10/25 11:23:02;;;;;;;1.70;1.60;;;17.40;99.90;;;;;;4959515;28;20207;-90
2023/10/25 11:25:33;;;;;;;2.60;1.70;;;16.40;99.90;;;;;;4958119;28;20209;-90
2023/10/25 11:27:59;;;;;;;2.50;2.00;;;18.10;99.90;;;;;;4959559;28;20189;-91
2023/10/25 11:30:26;;;;;;;1.50;1.40;;;19.10;99.90;;;;;;4956926;28;20773;-90
2023/10/25 11:32:54;;;;;;;1.92;1.73;;;17.90;99.90;;;;;;4946994;28;20200;-88
2023/10/25 11:35:25;;;;;;;3.03;1.67;;;16.80;99.90;;;;;;4945127;28;20686;-92
2023/10/25 11:45:19;;;;;;;2.90;1.60;;;17.60;99.90;;;;;;4887866;29;20194;-93
2023/10/25 11:47:47;;;;;;;1.60;1.42;;;18.70;99.90;;;;;;4956414;28;20197;-89
2023/10/25 11:50:13;;;;;;;2.35;1.42;;;18.50;99.90;;;;;;4951650;28;20208;-89
2023/10/25 11:52:39;;;;;;;1.50;1.40;;;19.10;99.90;;;;;;4961251;28;20205;-91
2023/10/25 11:55:05;;;;;;;2.07;1.67;;;19.30;99.90;;;;;;4955370;28;20189;-90
2023/10/25 11:57:32;;;;;;;1.75;1.65;;;18.30;99.90;;;;;;4954173;28;20551;-91
2023/10/25 11:59:57;;;;;;;11.68;10.57;;;20.00;99.90;;;;;;4954401;28;20271;-90
2023/10/25 12:02:28;;;;;;;1.80;1.47;;;20.50;99.90;;;;;;4954042;28;20301;-91
2023/10/25 12:04:55;;;;;;;1.20;1.00;;;19.40;99.90;;;;;;4959396;28;20188;-92
2023/10/25 12:07:23;;;;;;;1.45;1.20;;;19.50;99.90;;;;;;4960009;28;20192;-92
2023/10/25 12:09:55;;;;;;;1.20;1.10;;;18.60;99.90;;;;;;4959767;28;20184;-91
2023/10/25 12:12:21;;;;;;;1.90;1.03;;;18.30;99.90;;;;;;4957376;28;20272;-91
2023/10/25 12:14:47;;;;;;;3.55;1.20;;;20.20;99.90;;;;;;4961383;28;20318;-91
2023/10/25 12:17:13;;;;;;;1.15;1.05;;;17.10;99.90;;;;;;4954681;28;20207;-91
2023/10/25 12:19:41;;;;;;;2.10;1.20;;;20.30;99.90;;;;;;4953215;28;20192;-91
2023/10/25 12:22:10;;;;;;;1.45;1.20;;;18.00;99.90;;;;;;4955568;28;20184;-92
2023/10/25 12:24:37;;;;;;;3.72;1.00;;;18.00;99.90;;;;;;4956658;28;20181;-93
2023/10/25 12:27:04;;;;;;;1.30;1.13;;;20.20;99.90;;;;;;4954456;28;20195;-92
2023/10/25 12:29:30;;;;;;;1.33;1.20;;;18.10;99.90;;;;;;4963634;28;20225;-92
2023/10/25 12:31:56;;;;;;;1.23;1.10;;;17.90;99.90;;;;;;4981523;28;20177;-92
2023/10/25 12:34:22;;;;;;;1.10;1.00;;;19.20;99.90;;;;;;4980547;28;20200;-92
2023/10/25 12:36:49;;;;;;;1.10;0.98;;;19.10;99.90;;;;;;4965553;28;20212;-92
2023/10/25 12:39:19;;;;;;;1.90;1.42;;;17.20;99.90;;;;;;4964158;28;20191;-92
2023/10/25 12:41:45;;;;;;;1.33;0.98;;;20.40;99.90;;;;;;4959907;28;20180;-92
2023/10/25 12:44:12;;;;;;;1.40;0.93;;;20.60;99.90;;;;;;4960610;28;20208;-93
2023/10/25 12:46:42;;;;;;;2.63;1.52;;;19.80;99.90;;;;;;4968795;28;20468;-92
2023/10/25 12:49:08;;;;;;;2.22;1.40;;;20.30;99.90;;;;;;4955982;28;20185;-91
2023/10/25 12:51:35;;;;;;;2.67;1.40;;;21.30;99.90;;;;;;4963011;28;20228;-91
2023/10/25 12:54:00;;;;;;;1.38;1.13;;;18.70;99.90;;;;;;4956542;28;20769;-91
2023/10/25 12:56:35;;;;;;;2.00;0.87;;;19.10;99.90;;;;;;4956053;28;20209;-90
2023/10/25 12:59:00;;;;;;;2.22;1.10;;;19.90;99.90;;;;;;4954406;28;20180;-91
2023/10/25 13:01:29;;;;;;;1.10;1.00;;;17.60;99.90;;;;;;4953545;28;20189;-90
2023/10/25 13:03:55;;;;;;;0.90;0.90;;;19.10;99.90;;;;;;4963153;28;20296;-89
2023/10/25 13:06:21;;;;;;;1.65;1.17;;;20.20;99.90;;;;;;4956243;28;20189;-89
2023/10/25 13:08:47;;;;;;;1.50;1.10;;;20.50;99.90;;;;;;4955658;28;20283;-91
2023/10/25 13:11:12;;;;;;;2.00;1.20;;;20.30;99.90;;;;;;4956474;28;20189;-92
2023/10/25 13:13:41;;;;;;;1.40;1.00;;;20.50;99.90;;;;;;4962928;28;20214;-92
2023/10/25 13:16:06;;;;;;;0.98;0.90;;;20.10;99.90;;;;;;4965088;28;20295;-90
2023/10/25 13:18:32;;;;;;;1.50;1.20;;;;;;;;;;4957922;28;20212;-92